sensor_id;sensor_type;location;lat;lon;timestamp;P1;durP1;ratioP1;P2;durP2;ratioP2
579;SDS011;276;48.392;9.950;2023-12-20T00:01:47;6.33;;;5.40;;
579;SDS011;276;48.392;9.950;2023-12-20T00:04:13;6.90;;;6.03;;
579;SDS011;276;48.392;9.950;2023-12-20T00:06:40;5.30;;;4.90;;
579;SDS011;276;48.392;9.950;2023-12-20T00:09:06;5.23;;;4.77;;
579;SDS011;276;48.392;9.950;2023-12-20T00:11:32;8.80;;;5.77;;
579;SDS011;276;48.392;9.950;2023-12-20T00:13:57;5.47;;;5.00;;
579;SDS011;276;48.392;9.950;2023-12-20T00:16:25;6.13;;;5.47;;
579;SDS011;276;48.392;9.950;2023-12-20T00:18:53;5.27;;;4.80;;
579;SDS011;276;48.392;9.950;2023-12-20T00:21:21;6.37;;;5.50;;
579;SDS011;276;48.392;9.950;2023-12-20T00:23:47;5.00;;;4.60;;
579;SDS011;276;48.392;9.950;2023-12-20T00:26:15;4.90;;;3.83;;
579;SDS011;276;48.392;9.950;2023-12-20T00:28:41;5.13;;;4.73;;
579;SDS011;276;48.392;9.950;2023-12-20T00:31:07;4.93;;;4.53;;
579;SDS011;276;48.392;9.950;2023-12-20T00:33:33;4.60;;;4.20;;
579;SDS011;276;48.392;9.950;2023-12-20T00:36:01;4.70;;;4.30;;
579;SDS011;276;48.392;9.950;2023-12-20T00:38:27;6.00;;;5.50;;
579;SDS011;276;48.392;9.950;2023-12-20T00:40:55;4.83;;;4.30;;
579;SDS011;276;48.392;9.950;2023-12-20T00:43:23;4.60;;;4.20;;
579;SDS011;276;48.392;9.950;2023-12-20T00:45:51;4.93;;;4.53;;
579;SDS011;276;48.392;9.950;2023-12-20T00:48:24;4.93;;;4.43;;
579;SDS011;276;48.392;9.950;2023-12-20T00:50:52;4.00;;;3.60;;
579;SDS011;276;48.392;9.950;2023-12-20T00:53:19;4.10;;;3.70;;
579;SDS011;276;48.392;9.950;2023-12-20T00:55:45;4.07;;;3.77;;
579;SDS011;276;48.392;9.950;2023-12-20T00:58:11;4.60;;;4.20;;
579;SDS011;276;48.392;9.950;2023-12-20T01:00:40;4.40;;;3.57;;
579;SDS011;276;48.392;9.950;2023-12-20T01:03:07;4.73;;;4.23;;
579;SDS011;276;48.392;9.950;2023-12-20T01:05:35;4.50;;;4.13;;
579;SDS011;276;48.392;9.950;2023-12-20T01:08:00;4.77;;;4.37;;
579;SDS011;276;48.392;9.950;2023-12-20T01:10:28;5.00;;;4.60;;
579;SDS011;276;48.392;9.950;2023-12-20T01:12:54;4.73;;;4.33;;
579;SDS011;276;48.392;9.950;2023-12-20T01:15:20;5.30;;;4.40;;
579;SDS011;276;48.392;9.950;2023-12-20T01:17:45;4.63;;;4.20;;
579;SDS011;276;48.392;9.950;2023-12-20T01:20:12;4.77;;;4.27;;
579;SDS011;276;48.392;9.950;2023-12-20T01:22:37;5.63;;;4.47;;
579;SDS011;276;48.392;9.950;2023-12-20T01:25:03;4.13;;;3.70;;
579;SDS011;276;48.392;9.950;2023-12-20T01:27:29;5.80;;;4.50;;
579;SDS011;276;48.392;9.950;2023-12-20T01:29:57;4.80;;;4.00;;
579;SDS011;276;48.392;9.950;2023-12-20T01:32:22;4.43;;;4.13;;
579;SDS011;276;48.392;9.950;2023-12-20T01:34:50;5.80;;;4.10;;
579;SDS011;276;48.392;9.950;2023-12-20T01:37:16;3.93;;;3.60;;
579;SDS011;276;48.392;9.950;2023-12-20T01:39:41;3.87;;;3.57;;
579;SDS011;276;48.392;9.950;2023-12-20T01:42:07;3.77;;;3.43;;
579;SDS011;276;48.392;9.950;2023-12-20T01:44:35;4.03;;;3.73;;
579;SDS011;276;48.392;9.950;2023-12-20T01:47:03;4.40;;;4.00;;
579;SDS011;276;48.392;9.950;2023-12-20T01:49:29;4.30;;;3.90;;
579;SDS011;276;48.392;9.950;2023-12-20T01:51:55;3.93;;;3.60;;
579;SDS011;276;48.392;9.950;2023-12-20T01:54:23;3.77;;;3.47;;
579;SDS011;276;48.392;9.950;2023-12-20T01:56:52;4.43;;;4.10;;
579;SDS011;276;48.392;9.950;2023-12-20T01:59:18;3.33;;;3.03;;
579;SDS011;276;48.392;9.950;2023-12-20T02:01:45;3.53;;;3.33;;
579;SDS011;276;48.392;9.950;2023-12-20T02:04:13;3.30;;;3.10;;
579;SDS011;276;48.392;9.950;2023-12-20T02:06:41;4.00;;;3.70;;
579;SDS011;276;48.392;9.950;2023-12-20T02:09:08;3.90;;;3.60;;
579;SDS011;276;48.392;9.950;2023-12-20T02:11:34;3.37;;;3.03;;
579;SDS011;276;48.392;9.950;2023-12-20T02:14:01;3.77;;;3.47;;
579;SDS011;276;48.392;9.950;2023-12-20T02:16:29;4.53;;;3.53;;
579;SDS011;276;48.392;9.950;2023-12-20T02:19:00;3.40;;;3.10;;
579;SDS011;276;48.392;9.950;2023-12-20T02:21:31;3.47;;;3.17;;
579;SDS011;276;48.392;9.950;2023-12-20T02:23:57;3.67;;;3.40;;
579;SDS011;276;48.392;9.950;2023-12-20T02:26:28;3.17;;;2.90;;
579;SDS011;276;48.392;9.950;2023-12-20T02:28:56;3.27;;;2.97;;
579;SDS011;276;48.392;9.950;2023-12-20T02:31:25;3.50;;;3.20;;
579;SDS011;276;48.392;9.950;2023-12-20T02:33:50;2.87;;;2.67;;
579;SDS011;276;48.392;9.950;2023-12-20T02:36:18;3.33;;;3.13;;
579;SDS011;276;48.392;9.950;2023-12-20T02:38:46;3.37;;;3.13;;
579;SDS011;276;48.392;9.950;2023-12-20T02:41:15;3.20;;;3.00;;
579;SDS011;276;48.392;9.950;2023-12-20T02:43:43;3.83;;;3.57;;
579;SDS011;276;48.392;9.950;2023-12-20T02:46:13;3.40;;;3.20;;
579;SDS011;276;48.392;9.950;2023-12-20T02:48:43;3.63;;;3.43;;
579;SDS011;276;48.392;9.950;2023-12-20T02:51:12;3.30;;;3.00;;
579;SDS011;276;48.392;9.950;2023-12-20T02:53:37;3.40;;;3.20;;
579;SDS011;276;48.392;9.950;2023-12-20T02:56:03;3.20;;;2.90;;
579;SDS011;276;48.392;9.950;2023-12-20T02:58:31;3.60;;;3.30;;
579;SDS011;276;48.392;9.950;2023-12-20T03:00:57;3.73;;;3.43;;
579;SDS011;276;48.392;9.950;2023-12-20T03:03:22;4.37;;;3.97;;
579;SDS011;276;48.392;9.950;2023-12-20T03:05:50;3.87;;;3.57;;
579;SDS011;276;48.392;9.950;2023-12-20T03:08:21;3.63;;;3.33;;
579;SDS011;276;48.392;9.950;2023-12-20T03:10:49;4.53;;;4.23;;
579;SDS011;276;48.392;9.950;2023-12-20T03:13:15;7.63;;;4.07;;
579;SDS011;276;48.392;9.950;2023-12-20T03:15:40;3.80;;;3.37;;
579;SDS011;276;48.392;9.950;2023-12-20T03:18:08;4.27;;;3.83;;
579;SDS011;276;48.392;9.950;2023-12-20T03:20:34;3.57;;;3.27;;
579;SDS011;276;48.392;9.950;2023-12-20T03:23:04;3.20;;;3.00;;
579;SDS011;276;48.392;9.950;2023-12-20T03:25:32;3.93;;;3.63;;
579;SDS011;276;48.392;9.950;2023-12-20T03:28:00;4.10;;;3.80;;
579;SDS011;276;48.392;9.950;2023-12-20T03:30:25;3.40;;;3.13;;
579;SDS011;276;48.392;9.950;2023-12-20T03:32:53;3.90;;;3.60;;
579;SDS011;276;48.392;9.950;2023-12-20T03:35:23;3.37;;;3.07;;
579;SDS011;276;48.392;9.950;2023-12-20T03:37:51;3.73;;;3.43;;
579;SDS011;276;48.392;9.950;2023-12-20T03:40:25;4.80;;;3.53;;
579;SDS011;276;48.392;9.950;2023-12-20T03:42:53;3.10;;;2.90;;
579;SDS011;276;48.392;9.950;2023-12-20T03:45:19;3.23;;;3.03;;
579;SDS011;276;48.392;9.950;2023-12-20T03:47:44;3.70;;;3.47;;
579;SDS011;276;48.392;9.950;2023-12-20T03:50:12;3.47;;;3.17;;
579;SDS011;276;48.392;9.950;2023-12-20T03:52:43;4.70;;;4.30;;
579;SDS011;276;48.392;9.950;2023-12-20T03:55:08;3.20;;;2.90;;
579;SDS011;276;48.392;9.950;2023-12-20T03:57:36;3.30;;;3.00;;
579;SDS011;276;48.392;9.950;2023-12-20T04:00:05;3.60;;;3.30;;
579;SDS011;276;48.392;9.950;2023-12-20T04:02:39;3.73;;;3.47;;
579;SDS011;276;48.392;9.950;2023-12-20T04:05:09;3.73;;;3.43;;
579;SDS011;276;48.392;9.950;2023-12-20T04:07:39;3.80;;;3.50;;
579;SDS011;276;48.392;9.950;2023-12-20T04:10:05;3.60;;;3.30;;
579;SDS011;276;48.392;9.950;2023-12-20T04:12:32;3.70;;;3.40;;
579;SDS011;276;48.392;9.950;2023-12-20T04:14:57;3.40;;;3.20;;
579;SDS011;276;48.392;9.950;2023-12-20T04:17:23;4.27;;;3.77;;
579;SDS011;276;48.392;9.950;2023-12-20T04:19:51;2.80;;;2.60;;
579;SDS011;276;48.392;9.950;2023-12-20T04:22:19;3.90;;;3.60;;
579;SDS011;276;48.392;9.950;2023-12-20T04:24:47;4.87;;;3.00;;
579;SDS011;276;48.392;9.950;2023-12-20T04:27:13;3.00;;;2.80;;
579;SDS011;276;48.392;9.950;2023-12-20T04:29:41;3.10;;;2.90;;
579;SDS011;276;48.392;9.950;2023-12-20T04:32:07;2.97;;;2.77;;
579;SDS011;276;48.392;9.950;2023-12-20T04:34:33;4.03;;;3.73;;
579;SDS011;276;48.392;9.950;2023-12-20T04:37:01;3.30;;;3.03;;
579;SDS011;276;48.392;9.950;2023-12-20T04:39:29;4.07;;;3.30;;
579;SDS011;276;48.392;9.950;2023-12-20T04:41:57;2.53;;;2.40;;
579;SDS011;276;48.392;9.950;2023-12-20T04:44:22;2.97;;;2.77;;
579;SDS011;276;48.392;9.950;2023-12-20T04:46:48;3.40;;;2.90;;
579;SDS011;276;48.392;9.950;2023-12-20T04:49:16;3.30;;;3.00;;
579;SDS011;276;48.392;9.950;2023-12-20T04:51:42;2.90;;;2.63;;
579;SDS011;276;48.392;9.950;2023-12-20T04:54:07;2.10;;;2.00;;
579;SDS011;276;48.392;9.950;2023-12-20T04:56:35;2.37;;;2.17;;
579;SDS011;276;48.392;9.950;2023-12-20T04:59:01;2.80;;;2.60;;
579;SDS011;276;48.392;9.950;2023-12-20T05:01:29;2.30;;;2.10;;
579;SDS011;276;48.392;9.950;2023-12-20T05:03:55;2.73;;;2.53;;
579;SDS011;276;48.392;9.950;2023-12-20T05:06:23;2.47;;;2.27;;
579;SDS011;276;48.392;9.950;2023-12-20T05:08:49;3.20;;;2.80;;
579;SDS011;276;48.392;9.950;2023-12-20T05:11:15;2.20;;;2.00;;
579;SDS011;276;48.392;9.950;2023-12-20T05:13:43;2.67;;;2.47;;
579;SDS011;276;48.392;9.950;2023-12-20T05:16:08;2.20;;;2.07;;
579;SDS011;276;48.392;9.950;2023-12-20T05:18:34;2.10;;;2.00;;
579;SDS011;276;48.392;9.950;2023-12-20T05:21:02;2.23;;;2.13;;
579;SDS011;276;48.392;9.950;2023-12-20T05:23:30;2.30;;;2.10;;
579;SDS011;276;48.392;9.950;2023-12-20T05:26:00;2.47;;;2.27;;
579;SDS011;276;48.392;9.950;2023-12-20T05:28:31;2.73;;;2.53;;
579;SDS011;276;48.392;9.950;2023-12-20T05:30:57;2.37;;;2.27;;
579;SDS011;276;48.392;9.950;2023-12-20T05:33:25;3.00;;;1.87;;
579;SDS011;276;48.392;9.950;2023-12-20T05:35:50;1.97;;;1.87;;
579;SDS011;276;48.392;9.950;2023-12-20T05:38:18;2.20;;;2.10;;
579;SDS011;276;48.392;9.950;2023-12-20T05:40:46;2.17;;;1.90;;
579;SDS011;276;48.392;9.950;2023-12-20T05:43:14;2.00;;;1.70;;
579;SDS011;276;48.392;9.950;2023-12-20T05:45:42;1.50;;;1.40;;
579;SDS011;276;48.392;9.950;2023-12-20T05:48:10;2.30;;;2.00;;
579;SDS011;276;48.392;9.950;2023-12-20T05:50:36;1.60;;;1.50;;
579;SDS011;276;48.392;9.950;2023-12-20T05:53:02;1.50;;;1.40;;
579;SDS011;276;48.392;9.950;2023-12-20T05:55:30;1.70;;;1.60;;
579;SDS011;276;48.392;9.950;2023-12-20T05:57:55;1.60;;;1.50;;
579;SDS011;276;48.392;9.950;2023-12-20T06:00:21;1.27;;;1.17;;
579;SDS011;276;48.392;9.950;2023-12-20T06:02:46;1.37;;;1.27;;
579;SDS011;276;48.392;9.950;2023-12-20T06:05:14;1.93;;;1.70;;
579;SDS011;276;48.392;9.950;2023-12-20T06:07:40;3.33;;;3.03;;
579;SDS011;276;48.392;9.950;2023-12-20T06:10:06;1.90;;;1.80;;
579;SDS011;276;48.392;9.950;2023-12-20T06:12:38;2.40;;;1.77;;
579;SDS011;276;48.392;9.950;2023-12-20T06:15:04;1.40;;;1.30;;
579;SDS011;276;48.392;9.950;2023-12-20T06:17:33;2.00;;;1.90;;
579;SDS011;276;48.392;9.950;2023-12-20T06:20:00;1.53;;;1.43;;
579;SDS011;276;48.392;9.950;2023-12-20T06:22:32;1.80;;;1.70;;
579;SDS011;276;48.392;9.950;2023-12-20T06:25:01;2.83;;;2.17;;
579;SDS011;276;48.392;9.950;2023-12-20T06:27:30;3.13;;;2.93;;
579;SDS011;276;48.392;9.950;2023-12-20T06:29:57;1.73;;;1.63;;
579;SDS011;276;48.392;9.950;2023-12-20T06:32:26;2.63;;;2.43;;
579;SDS011;276;48.392;9.950;2023-12-20T06:34:54;5.33;;;2.20;;
579;SDS011;276;48.392;9.950;2023-12-20T06:37:19;3.40;;;2.50;;
579;SDS011;276;48.392;9.950;2023-12-20T06:39:45;2.57;;;2.27;;
579;SDS011;276;48.392;9.950;2023-12-20T06:42:11;2.13;;;1.90;;
579;SDS011;276;48.392;9.950;2023-12-20T06:44:40;3.27;;;2.37;;
579;SDS011;276;48.392;9.950;2023-12-20T06:47:08;2.03;;;1.93;;
579;SDS011;276;48.392;9.950;2023-12-20T06:49:33;2.83;;;2.63;;
579;SDS011;276;48.392;9.950;2023-12-20T06:52:01;2.30;;;2.20;;
579;SDS011;276;48.392;9.950;2023-12-20T06:54:27;2.67;;;2.47;;
579;SDS011;276;48.392;9.950;2023-12-20T06:56:57;2.87;;;2.67;;
579;SDS011;276;48.392;9.950;2023-12-20T06:59:25;3.27;;;3.07;;
579;SDS011;276;48.392;9.950;2023-12-20T07:01:53;8.00;;;4.63;;
579;SDS011;276;48.392;9.950;2023-12-20T07:04:21;3.57;;;3.27;;
579;SDS011;276;48.392;9.950;2023-12-20T07:06:49;3.47;;;3.17;;
579;SDS011;276;48.392;9.950;2023-12-20T07:09:23;2.80;;;2.60;;
579;SDS011;276;48.392;9.950;2023-12-20T07:11:52;3.37;;;3.17;;
579;SDS011;276;48.392;9.950;2023-12-20T07:14:20;3.90;;;3.60;;
579;SDS011;276;48.392;9.950;2023-12-20T07:16:45;4.13;;;3.80;;
579;SDS011;276;48.392;9.950;2023-12-20T07:19:16;4.43;;;4.03;;
579;SDS011;276;48.392;9.950;2023-12-20T07:21:44;4.30;;;4.00;;
579;SDS011;276;48.392;9.950;2023-12-20T07:24:09;4.20;;;3.87;;
579;SDS011;276;48.392;9.950;2023-12-20T07:26:37;4.17;;;3.87;;
579;SDS011;276;48.392;9.950;2023-12-20T07:29:04;5.20;;;4.70;;
579;SDS011;276;48.392;9.950;2023-12-20T07:31:30;6.97;;;5.27;;
579;SDS011;276;48.392;9.950;2023-12-20T07:33:58;4.73;;;4.33;;
579;SDS011;276;48.392;9.950;2023-12-20T07:36:23;4.67;;;4.37;;
579;SDS011;276;48.392;9.950;2023-12-20T07:38:49;4.53;;;4.23;;
579;SDS011;276;48.392;9.950;2023-12-20T07:41:17;4.63;;;4.30;;
579;SDS011;276;48.392;9.950;2023-12-20T07:43:46;5.47;;;4.90;;
579;SDS011;276;48.392;9.950;2023-12-20T07:46:11;4.40;;;4.10;;
579;SDS011;276;48.392;9.950;2023-12-20T07:48:37;6.57;;;6.07;;
579;SDS011;276;48.392;9.950;2023-12-20T07:51:06;5.73;;;5.20;;
579;SDS011;276;48.392;9.950;2023-12-20T07:53:33;5.70;;;5.30;;
579;SDS011;276;48.392;9.950;2023-12-20T07:55:59;5.70;;;5.13;;
579;SDS011;276;48.392;9.950;2023-12-20T07:58:24;6.37;;;5.77;;
579;SDS011;276;48.392;9.950;2023-12-20T08:00:55;6.60;;;6.10;;
579;SDS011;276;48.392;9.950;2023-12-20T08:03:23;6.17;;;5.67;;
579;SDS011;276;48.392;9.950;2023-12-20T08:05:48;5.77;;;5.37;;
579;SDS011;276;48.392;9.950;2023-12-20T08:08:14;6.17;;;5.77;;
579;SDS011;276;48.392;9.950;2023-12-20T08:10:39;5.90;;;5.40;;
579;SDS011;276;48.392;9.950;2023-12-20T08:13:05;5.53;;;5.13;;
579;SDS011;276;48.392;9.950;2023-12-20T08:15:36;5.57;;;5.17;;
579;SDS011;276;48.392;9.950;2023-12-20T08:18:02;6.37;;;5.87;;
579;SDS011;276;48.392;9.950;2023-12-20T08:20:28;5.97;;;5.50;;
579;SDS011;276;48.392;9.950;2023-12-20T08:22:58;7.30;;;6.70;;
579;SDS011;276;48.392;9.950;2023-12-20T08:25:24;6.67;;;6.17;;
579;SDS011;276;48.392;9.950;2023-12-20T08:27:52;6.37;;;5.97;;
579;SDS011;276;48.392;9.950;2023-12-20T08:30:20;6.23;;;5.73;;
579;SDS011;276;48.392;9.950;2023-12-20T08:32:47;7.27;;;6.23;;
579;SDS011;276;48.392;9.950;2023-12-20T08:35:18;6.73;;;6.23;;
579;SDS011;276;48.392;9.950;2023-12-20T08:37:43;6.30;;;5.73;;
579;SDS011;276;48.392;9.950;2023-12-20T08:40:09;6.57;;;6.07;;
579;SDS011;276;48.392;9.950;2023-12-20T08:42:35;7.77;;;6.57;;
579;SDS011;276;48.392;9.950;2023-12-20T08:45:01;6.37;;;5.70;;
579;SDS011;276;48.392;9.950;2023-12-20T08:47:29;6.80;;;6.23;;
579;SDS011;276;48.392;9.950;2023-12-20T08:49:54;6.40;;;5.90;;
579;SDS011;276;48.392;9.950;2023-12-20T08:52:22;6.10;;;5.70;;
579;SDS011;276;48.392;9.950;2023-12-20T08:54:48;5.97;;;5.50;;
579;SDS011;276;48.392;9.950;2023-12-20T08:57:16;6.40;;;5.90;;
579;SDS011;276;48.392;9.950;2023-12-20T08:59:46;7.73;;;7.07;;
579;SDS011;276;48.392;9.950;2023-12-20T09:02:12;7.13;;;6.53;;
579;SDS011;276;48.392;9.950;2023-12-20T09:04:40;7.27;;;6.77;;
579;SDS011;276;48.392;9.950;2023-12-20T09:07:06;6.40;;;5.90;;
579;SDS011;276;48.392;9.950;2023-12-20T09:09:32;5.90;;;5.50;;
579;SDS011;276;48.392;9.950;2023-12-20T09:11:58;6.03;;;5.53;;
579;SDS011;276;48.392;9.950;2023-12-20T09:14:26;5.37;;;4.93;;
579;SDS011;276;48.392;9.950;2023-12-20T09:16:51;5.40;;;4.90;;
579;SDS011;276;48.392;9.950;2023-12-20T09:19:20;6.07;;;5.60;;
579;SDS011;276;48.392;9.950;2023-12-20T09:21:46;5.33;;;4.90;;
579;SDS011;276;48.392;9.950;2023-12-20T09:24:11;5.03;;;4.63;;
579;SDS011;276;48.392;9.950;2023-12-20T09:26:42;3.00;;;2.80;;
579;SDS011;276;48.392;9.950;2023-12-20T09:29:09;3.07;;;2.67;;
579;SDS011;276;48.392;9.950;2023-12-20T09:31:36;2.90;;;2.70;;
579;SDS011;276;48.392;9.950;2023-12-20T09:34:06;2.70;;;2.50;;
579;SDS011;276;48.392;9.950;2023-12-20T09:36:36;3.27;;;2.97;;
579;SDS011;276;48.392;9.950;2023-12-20T09:39:07;2.53;;;2.43;;
579;SDS011;276;48.392;9.950;2023-12-20T09:41:41;4.10;;;3.63;;
579;SDS011;276;48.392;9.950;2023-12-20T09:44:15;2.80;;;2.60;;
579;SDS011;276;48.392;9.950;2023-12-20T09:46:43;2.60;;;2.40;;
579;SDS011;276;48.392;9.950;2023-12-20T09:49:10;1.87;;;1.77;;
579;SDS011;276;48.392;9.950;2023-12-20T09:51:37;2.47;;;2.00;;
579;SDS011;276;48.392;9.950;2023-12-20T09:54:06;1.50;;;1.40;;
579;SDS011;276;48.392;9.950;2023-12-20T09:56:35;1.33;;;1.23;;
579;SDS011;276;48.392;9.950;2023-12-20T09:59:02;1.70;;;1.60;;
579;SDS011;276;48.392;9.950;2023-12-20T10:01:28;0.70;;;0.50;;
579;SDS011;276;48.392;9.950;2023-12-20T10:03:54;0.80;;;0.70;;
579;SDS011;276;48.392;9.950;2023-12-20T10:06:20;0.70;;;0.50;;
579;SDS011;276;48.392;9.950;2023-12-20T10:08:48;0.60;;;0.50;;
579;SDS011;276;48.392;9.950;2023-12-20T10:11:14;0.60;;;0.60;;
579;SDS011;276;48.392;9.950;2023-12-20T10:13:40;1.30;;;1.30;;
579;SDS011;276;48.392;9.950;2023-12-20T10:16:06;0.40;;;0.40;;
579;SDS011;276;48.392;9.950;2023-12-20T10:18:35;0.93;;;0.80;;
579;SDS011;276;48.392;9.950;2023-12-20T10:21:01;0.93;;;0.70;;
579;SDS011;276;48.392;9.950;2023-12-20T10:23:28;1.13;;;0.80;;
579;SDS011;276;48.392;9.950;2023-12-20T10:25:59;2.20;;;0.70;;
579;SDS011;276;48.392;9.950;2023-12-20T10:28:28;0.60;;;0.60;;
579;SDS011;276;48.392;9.950;2023-12-20T10:31:03;0.70;;;0.50;;
579;SDS011;276;48.392;9.950;2023-12-20T10:33:29;1.43;;;0.60;;
579;SDS011;276;48.392;9.950;2023-12-20T10:35:57;0.50;;;0.50;;
579;SDS011;276;48.392;9.950;2023-12-20T10:38:22;0.40;;;0.40;;
579;SDS011;276;48.392;9.950;2023-12-20T10:40:54;0.40;;;0.30;;
579;SDS011;276;48.392;9.950;2023-12-20T10:43:24;0.73;;;0.60;;
579;SDS011;276;48.392;9.950;2023-12-20T10:45:51;1.07;;;0.70;;
579;SDS011;276;48.392;9.950;2023-12-20T10:48:17;0.77;;;0.60;;
579;SDS011;276;48.392;9.950;2023-12-20T10:50:46;3.37;;;0.80;;
579;SDS011;276;48.392;9.950;2023-12-20T10:53:12;1.93;;;0.87;;
579;SDS011;276;48.392;9.950;2023-12-20T10:55:39;1.17;;;1.07;;
579;SDS011;276;48.392;9.950;2023-12-20T10:58:08;0.90;;;0.80;;
579;SDS011;276;48.392;9.950;2023-12-20T11:00:39;1.10;;;1.00;;
579;SDS011;276;48.392;9.950;2023-12-20T11:03:11;1.20;;;1.10;;
579;SDS011;276;48.392;9.950;2023-12-20T11:08:13;1.70;;;1.10;;
579;SDS011;276;48.392;9.950;2023-12-20T11:10:59;1.00;;;1.00;;
579;SDS011;276;48.392;9.950;2023-12-20T11:13:37;2.73;;;1.20;;
579;SDS011;276;48.392;9.950;2023-12-20T11:16:11;1.00;;;0.77;;
579;SDS011;276;48.392;9.950;2023-12-20T11:18:40;2.03;;;1.07;;
579;SDS011;276;48.392;9.950;2023-12-20T11:21:06;2.83;;;1.07;;
579;SDS011;276;48.392;9.950;2023-12-20T11:23:31;2.20;;;1.30;;
579;SDS011;276;48.392;9.950;2023-12-20T11:26:00;0.97;;;0.87;;
579;SDS011;276;48.392;9.950;2023-12-20T11:28:30;1.83;;;0.87;;
579;SDS011;276;48.392;9.950;2023-12-20T11:30:58;0.90;;;0.63;;
579;SDS011;276;48.392;9.950;2023-12-20T11:33:30;1.53;;;1.07;;
579;SDS011;276;48.392;9.950;2023-12-20T11:36:01;1.53;;;0.70;;
579;SDS011;276;48.392;9.950;2023-12-20T11:38:27;1.87;;;1.10;;
579;SDS011;276;48.392;9.950;2023-12-20T11:41:02;1.70;;;0.80;;
579;SDS011;276;48.392;9.950;2023-12-20T11:46:07;2.37;;;1.30;;
579;SDS011;276;48.392;9.950;2023-12-20T11:48:36;2.40;;;1.40;;
579;SDS011;276;48.392;9.950;2023-12-20T11:51:11;1.93;;;1.00;;
579;SDS011;276;48.392;9.950;2023-12-20T11:53:38;1.27;;;0.90;;
579;SDS011;276;48.392;9.950;2023-12-20T11:56:07;2.40;;;1.13;;
579;SDS011;276;48.392;9.950;2023-12-20T11:58:33;2.10;;;1.27;;
579;SDS011;276;48.392;9.950;2023-12-20T12:00:59;1.47;;;0.97;;
579;SDS011;276;48.392;9.950;2023-12-20T12:03:29;2.13;;;1.80;;
579;SDS011;276;48.392;9.950;2023-12-20T12:05:55;4.20;;;1.57;;
579;SDS011;276;48.392;9.950;2023-12-20T12:08:21;2.70;;;0.83;;
579;SDS011;276;48.392;9.950;2023-12-20T12:10:46;2.63;;;1.10;;
579;SDS011;276;48.392;9.950;2023-12-20T12:13:12;1.40;;;1.23;;
579;SDS011;276;48.392;9.950;2023-12-20T12:15:39;1.83;;;1.10;;
579;SDS011;276;48.392;9.950;2023-12-20T12:18:07;1.33;;;1.23;;
579;SDS011;276;48.392;9.950;2023-12-20T12:20:35;1.90;;;0.90;;
579;SDS011;276;48.392;9.950;2023-12-20T12:23:03;2.00;;;0.80;;
579;SDS011;276;48.392;9.950;2023-12-20T12:25:30;1.03;;;0.90;;
579;SDS011;276;48.392;9.950;2023-12-20T12:28:00;1.07;;;0.90;;
579;SDS011;276;48.392;9.950;2023-12-20T12:30:26;3.00;;;1.17;;
579;SDS011;276;48.392;9.950;2023-12-20T12:32:52;1.60;;;1.10;;
579;SDS011;276;48.392;9.950;2023-12-20T12:35:18;1.23;;;1.13;;
579;SDS011;276;48.392;9.950;2023-12-20T12:37:47;1.60;;;0.80;;
579;SDS011;276;48.392;9.950;2023-12-20T12:40:13;0.93;;;0.70;;
579;SDS011;276;48.392;9.950;2023-12-20T12:42:40;1.90;;;0.90;;
579;SDS011;276;48.392;9.950;2023-12-20T12:45:07;2.10;;;1.03;;
579;SDS011;276;48.392;9.950;2023-12-20T12:47:36;2.17;;;0.90;;
579;SDS011;276;48.392;9.950;2023-12-20T12:50:02;1.40;;;0.67;;
579;SDS011;276;48.392;9.950;2023-12-20T12:52:30;2.60;;;1.03;;
579;SDS011;276;48.392;9.950;2023-12-20T12:54:56;1.83;;;0.90;;
579;SDS011;276;48.392;9.950;2023-12-20T12:57:22;0.57;;;0.57;;
579;SDS011;276;48.392;9.950;2023-12-20T12:59:48;0.80;;;0.80;;
579;SDS011;276;48.392;9.950;2023-12-20T13:02:14;1.57;;;0.90;;
579;SDS011;276;48.392;9.950;2023-12-20T13:04:43;1.17;;;0.80;;
579;SDS011;276;48.392;9.950;2023-12-20T13:07:13;1.03;;;0.83;;
579;SDS011;276;48.392;9.950;2023-12-20T13:09:41;1.57;;;1.00;;
579;SDS011;276;48.392;9.950;2023-12-20T13:12:07;1.13;;;1.03;;
579;SDS011;276;48.392;9.950;2023-12-20T13:14:35;1.20;;;0.90;;
579;SDS011;276;48.392;9.950;2023-12-20T13:17:04;2.20;;;1.10;;
579;SDS011;276;48.392;9.950;2023-12-20T13:19:31;1.23;;;1.13;;
579;SDS011;276;48.392;9.950;2023-12-20T13:22:00;1.57;;;1.23;;
579;SDS011;276;48.392;9.950;2023-12-20T13:24:25;2.30;;;1.20;;
579;SDS011;276;48.392;9.950;2023-12-20T13:26:53;1.60;;;1.50;;
579;SDS011;276;48.392;9.950;2023-12-20T13:29:19;2.40;;;1.80;;
579;SDS011;276;48.392;9.950;2023-12-20T13:31:45;1.73;;;1.23;;
579;SDS011;276;48.392;9.950;2023-12-20T13:34:13;3.10;;;1.70;;
579;SDS011;276;48.392;9.950;2023-12-20T13:36:39;3.20;;;1.40;;
579;SDS011;276;48.392;9.950;2023-12-20T13:39:06;1.77;;;1.67;;
579;SDS011;276;48.392;9.950;2023-12-20T13:41:32;1.53;;;1.43;;
579;SDS011;276;48.392;9.950;2023-12-20T13:43:58;1.20;;;1.10;;
579;SDS011;276;48.392;9.950;2023-12-20T13:46:23;5.70;;;1.60;;
579;SDS011;276;48.392;9.950;2023-12-20T13:48:49;2.50;;;1.70;;
579;SDS011;276;48.392;9.950;2023-12-20T13:51:15;2.40;;;1.67;;
579;SDS011;276;48.392;9.950;2023-12-20T13:53:40;2.20;;;1.30;;
579;SDS011;276;48.392;9.950;2023-12-20T13:56:08;1.70;;;1.00;;
579;SDS011;276;48.392;9.950;2023-12-20T13:58:36;5.70;;;1.63;;
579;SDS011;276;48.392;9.950;2023-12-20T14:01:04;2.30;;;2.10;;
579;SDS011;276;48.392;9.950;2023-12-20T14:03:30;0.90;;;0.80;;
579;SDS011;276;48.392;9.950;2023-12-20T14:05:58;2.30;;;1.10;;
579;SDS011;276;48.392;9.950;2023-12-20T14:08:26;2.37;;;1.17;;
579;SDS011;276;48.392;9.950;2023-12-20T14:10:52;1.63;;;1.20;;
579;SDS011;276;48.392;9.950;2023-12-20T14:13:20;3.60;;;1.60;;
579;SDS011;276;48.392;9.950;2023-12-20T14:15:46;1.50;;;1.27;;
579;SDS011;276;48.392;9.950;2023-12-20T14:18:14;1.70;;;1.43;;
579;SDS011;276;48.392;9.950;2023-12-20T14:20:45;3.17;;;1.40;;
579;SDS011;276;48.392;9.950;2023-12-20T14:23:13;1.73;;;1.10;;
579;SDS011;276;48.392;9.950;2023-12-20T14:25:41;1.80;;;1.00;;
579;SDS011;276;48.392;9.950;2023-12-20T14:28:07;1.30;;;1.03;;
579;SDS011;276;48.392;9.950;2023-12-20T14:30:33;3.50;;;1.10;;
579;SDS011;276;48.392;9.950;2023-12-20T14:33:02;1.23;;;1.13;;
579;SDS011;276;48.392;9.950;2023-12-20T14:35:28;1.70;;;1.30;;
579;SDS011;276;48.392;9.950;2023-12-20T14:37:54;2.60;;;1.70;;
579;SDS011;276;48.392;9.950;2023-12-20T14:40:20;2.40;;;1.50;;
579;SDS011;276;48.392;9.950;2023-12-20T14:42:48;2.00;;;1.80;;
579;SDS011;276;48.392;9.950;2023-12-20T14:45:16;2.60;;;2.10;;
579;SDS011;276;48.392;9.950;2023-12-20T14:47:42;2.97;;;1.90;;
579;SDS011;276;48.392;9.950;2023-12-20T14:50:10;3.83;;;1.87;;
579;SDS011;276;48.392;9.950;2023-12-20T14:52:43;2.80;;;1.67;;
579;SDS011;276;48.392;9.950;2023-12-20T14:55:10;3.07;;;1.80;;
579;SDS011;276;48.392;9.950;2023-12-20T14:57:35;2.17;;;1.43;;
579;SDS011;276;48.392;9.950;2023-12-20T15:00:04;1.83;;;1.40;;
579;SDS011;276;48.392;9.950;2023-12-20T15:02:30;2.90;;;1.47;;
579;SDS011;276;48.392;9.950;2023-12-20T15:04:56;2.33;;;1.20;;
579;SDS011;276;48.392;9.950;2023-12-20T15:07:25;2.20;;;1.57;;
579;SDS011;276;48.392;9.950;2023-12-20T15:09:50;2.53;;;1.17;;
579;SDS011;276;48.392;9.950;2023-12-20T15:12:21;3.43;;;1.53;;
579;SDS011;276;48.392;9.950;2023-12-20T15:14:49;1.40;;;1.30;;
579;SDS011;276;48.392;9.950;2023-12-20T15:17:15;4.43;;;1.37;;
579;SDS011;276;48.392;9.950;2023-12-20T15:19:41;5.40;;;1.63;;
579;SDS011;276;48.392;9.950;2023-12-20T15:22:09;5.33;;;1.37;;
579;SDS011;276;48.392;9.950;2023-12-20T15:24:36;3.90;;;1.60;;
579;SDS011;276;48.392;9.950;2023-12-20T15:27:05;2.80;;;1.40;;
579;SDS011;276;48.392;9.950;2023-12-20T15:29:31;2.23;;;1.43;;
579;SDS011;276;48.392;9.950;2023-12-20T15:31:57;2.43;;;2.03;;
579;SDS011;276;48.392;9.950;2023-12-20T15:34:24;2.20;;;1.57;;
579;SDS011;276;48.392;9.950;2023-12-20T15:36:56;4.63;;;1.80;;
579;SDS011;276;48.392;9.950;2023-12-20T15:39:24;6.03;;;1.90;;
579;SDS011;276;48.392;9.950;2023-12-20T15:41:52;3.27;;;1.43;;
579;SDS011;276;48.392;9.950;2023-12-20T15:44:18;1.13;;;1.03;;
579;SDS011;276;48.392;9.950;2023-12-20T15:46:46;3.73;;;1.60;;
579;SDS011;276;48.392;9.950;2023-12-20T15:49:19;2.93;;;1.80;;
579;SDS011;276;48.392;9.950;2023-12-20T15:51:45;4.07;;;1.60;;